createdAt,value
2016-07-19T00:01:59.421Z,0
2016-07-19T00:02:59.456Z,0
2016-07-19T00:04:14.395Z,0
2016-07-19T00:04:59.505Z,0
2016-07-19T00:06:14.455Z,0
2016-07-19T00:07:14.481Z,0
2016-07-19T00:08:14.503Z,0
2016-07-19T00:09:14.534Z,0
2016-07-19T00:09:59.636Z,0
2016-07-19T00:10:59.655Z,0
2016-07-19T00:11:59.682Z,0
2016-07-19T00:12:59.710Z,0
2016-07-19T00:13:59.746Z,0
2016-07-19T00:14:59.764Z,0
2016-07-19T00:15:59.793Z,0
2016-07-19T00:16:59.824Z,0
2016-07-19T00:17:59.839Z,0
2016-07-19T00:19:59.902Z,0
2016-07-19T00:20:59.931Z,0
2016-07-19T00:21:59.947Z,0
2016-07-19T00:23:14.904Z,0
2016-07-19T00:24:00.006Z,0
2016-07-19T00:25:00.041Z,0
2016-07-19T00:26:00.058Z,0
2016-07-19T00:27:00.096Z,0
2016-07-19T00:28:00.113Z,0
2016-07-19T00:29:00.142Z,0
2016-07-19T00:30:00.167Z,0
2016-07-19T00:31:00.186Z,0
2016-07-19T00:32:00.212Z,0
2016-07-19T00:33:00.244Z,0
2016-07-19T00:34:00.275Z,0
2016-07-19T00:35:30.156Z,0
2016-07-19T00:36:15.257Z,0
2016-07-19T00:37:15.273Z,0
2016-07-19T00:38:00.381Z,0
2016-07-19T00:39:15.333Z,0
2016-07-19T00:40:15.367Z,0
2016-07-19T00:41:00.458Z,0
2016-07-19T00:42:00.493Z,0
2016-07-19T00:43:00.514Z,0
2016-07-19T00:44:00.542Z,0
2016-07-19T00:45:00.580Z,0
2016-07-19T00:46:00.595Z,0
2016-07-19T00:47:00.618Z,0
2016-07-19T00:48:15.573Z,0
2016-07-19T00:49:15.604Z,0
2016-07-19T00:50:00.701Z,0
2016-07-19T00:51:15.656Z,0
2016-07-19T00:52:15.676Z,0
2016-07-19T00:53:15.706Z,0
2016-07-19T00:54:00.810Z,0
2016-07-19T00:55:15.773Z,0
2016-07-19T00:56:00.863Z,0
2016-07-19T00:59:00.944Z,0
2016-07-19T01:00:00.964Z,0
2016-07-19T01:01:00.990Z,0
2016-07-19T01:02:01.023Z,0
2016-07-19T01:03:01.041Z,0
2016-07-19T01:04:15.998Z,0
2016-07-19T01:05:01.093Z,0
2016-07-19T01:06:01.125Z,0
2016-07-19T01:07:01.150Z,0
2016-07-19T01:08:16.106Z,0
2016-07-19T01:09:16.129Z,0
2016-07-19T01:10:16.162Z,0
2016-07-19T01:11:01.259Z,0
2016-07-19T01:12:01.293Z,0
2016-07-19T01:13:01.318Z,0
2016-07-19T01:14:01.338Z,0
2016-07-19T01:15:01.368Z,0
2016-07-19T01:16:01.393Z,0
2016-07-19T01:17:01.434Z,0
2016-07-19T01:18:01.437Z,0
2016-07-19T01:19:01.536Z,0
2016-07-19T01:20:01.496Z,0
2016-07-19T01:21:01.526Z,0
2016-07-19T01:22:01.551Z,0
2016-07-19T01:23:01.583Z,0
2016-07-19T01:24:01.595Z,0
2016-07-19T01:25:01.637Z,0
2016-07-19T01:26:01.656Z,0
2016-07-19T01:27:31.532Z,0
2016-07-19T01:28:01.713Z,0
2016-07-19T01:29:01.737Z,0
2016-07-19T01:30:01.763Z,0
2016-07-19T01:31:16.719Z,0
2016-07-19T01:32:16.743Z,0
2016-07-19T01:33:01.846Z,0
2016-07-19T01:34:01.873Z,0
2016-07-19T01:35:01.905Z,0
2016-07-19T01:36:01.927Z,0
2016-07-19T01:37:01.944Z,0
2016-07-19T01:38:01.977Z,0
2016-07-19T01:39:02.001Z,0
2016-07-19T01:40:02.030Z,0
2016-07-19T01:41:02.059Z,0
2016-07-19T01:42:17.008Z,0
2016-07-19T01:43:02.105Z,0
2016-07-19T01:44:02.137Z,0
2016-07-19T01:45:02.167Z,0
2016-07-19T01:46:02.187Z,0
2016-07-19T01:47:02.214Z,0
2016-07-19T01:48:02.240Z,0
2016-07-19T01:49:02.268Z,0
2016-07-19T01:50:02.297Z,0
2016-07-19T01:51:02.319Z,0
2016-07-19T01:52:02.361Z,0
2016-07-19T01:53:02.371Z,0
2016-07-19T01:54:02.403Z,0
2016-07-19T01:55:02.427Z,0
2016-07-19T01:56:02.455Z,0
2016-07-19T01:57:02.475Z,0
2016-07-19T01:58:17.433Z,0
2016-07-19T01:59:17.455Z,0
2016-07-19T02:00:17.498Z,0
2016-07-19T02:01:02.586Z,0
2016-07-19T02:02:17.540Z,0
2016-07-19T02:03:02.634Z,0
2016-07-19T02:05:17.620Z,0
2016-07-19T02:06:02.719Z,0
2016-07-19T02:07:02.758Z,0
2016-07-19T02:08:02.772Z,0
2016-07-19T02:09:02.803Z,0
2016-07-19T02:10:02.825Z,0
2016-07-19T02:11:02.854Z,0
2016-07-19T02:12:17.805Z,0
2016-07-19T02:13:02.900Z,0
2016-07-19T02:14:17.853Z,0
2016-07-19T02:15:02.952Z,0
2016-07-19T02:16:17.905Z,0
2016-07-19T02:17:17.936Z,0
2016-07-19T02:18:03.041Z,0
2016-07-19T02:19:03.065Z,0
2016-07-19T02:20:03.089Z,0
2016-07-19T02:21:03.134Z,0
2016-07-19T02:22:03.145Z,0
2016-07-19T02:23:03.173Z,0
2016-07-19T02:24:03.190Z,0
2016-07-19T02:25:03.235Z,0
2016-07-19T02:26:03.245Z,0
2016-07-19T02:27:03.290Z,0
2016-07-19T02:28:03.305Z,0
2016-07-19T02:29:18.257Z,0
2016-07-19T02:30:18.281Z,0
2016-07-19T02:31:03.387Z,0
2016-07-19T02:32:03.404Z,0
2016-07-19T02:33:03.434Z,0
2016-07-19T02:34:03.456Z,0
2016-07-19T02:35:03.498Z,0
2016-07-19T02:36:03.514Z,0
2016-07-19T02:37:03.538Z,0
2016-07-19T02:38:03.567Z,0
2016-07-19T02:39:03.591Z,0
2016-07-19T02:40:03.620Z,0
2016-07-19T02:41:03.642Z,0
2016-07-19T02:42:03.664Z,0
2016-07-19T02:43:03.698Z,0
2016-07-19T02:44:03.724Z,0
2016-07-19T02:45:33.609Z,0
2016-07-19T02:46:03.787Z,0
2016-07-19T02:47:18.729Z,0
2016-07-19T02:48:03.831Z,0
2016-07-19T02:49:03.856Z,0
2016-07-19T02:50:04.596Z,0
2016-07-19T02:51:18.843Z,0
2016-07-19T02:52:03.947Z,0
2016-07-19T02:53:03.976Z,0
2016-07-19T02:54:03.990Z,0
2016-07-19T02:55:04.029Z,0
2016-07-19T02:56:04.056Z,0
2016-07-19T02:57:19.003Z,0
2016-07-19T02:58:04.107Z,0
2016-07-19T02:59:04.133Z,0
2016-07-19T03:00:04.155Z,0
2016-07-19T03:01:04.182Z,0
2016-07-19T03:02:19.133Z,0
2016-07-19T03:04:04.258Z,0
2016-07-19T03:05:04.278Z,0
2016-07-19T03:06:04.317Z,0
2016-07-19T03:07:04.328Z,0
2016-07-19T03:08:04.360Z,0
2016-07-19T03:09:04.400Z,0
2016-07-19T03:10:04.420Z,0
2016-07-19T03:11:04.448Z,0
2016-07-19T03:12:04.474Z,0
2016-07-19T03:13:04.501Z,0
2016-07-19T03:14:04.516Z,0
2016-07-19T03:15:34.402Z,0
2016-07-19T03:16:04.623Z,0
2016-07-19T03:17:19.526Z,0
2016-07-19T03:18:04.631Z,0
2016-07-19T03:19:19.579Z,0
2016-07-19T03:20:04.679Z,5
2016-07-19T03:21:04.708Z,5
2016-07-19T03:22:04.731Z,5
2016-07-19T03:23:04.770Z,5
2016-07-19T03:24:04.787Z,5
2016-07-19T03:25:04.813Z,5
2016-07-19T03:26:19.763Z,5
2016-07-19T03:27:19.789Z,5
2016-07-19T03:28:04.893Z,5
2016-07-19T03:29:04.915Z,5
2016-07-19T03:30:04.954Z,5
2016-07-19T03:31:19.896Z,0
2016-07-19T03:33:19.949Z,5
2016-07-19T03:34:05.062Z,5
2016-07-19T03:35:20.000Z,5
2016-07-19T03:36:05.115Z,5
2016-07-19T03:37:20.053Z,5
2016-07-19T03:38:05.159Z,5
2016-07-19T03:39:05.190Z,5
2016-07-19T03:40:05.208Z,5
2016-07-19T03:41:05.228Z,5
2016-07-19T03:42:05.258Z,5
2016-07-19T03:43:05.284Z,5
2016-07-19T03:44:05.330Z,5
2016-07-19T03:45:05.351Z,5
2016-07-19T03:46:05.366Z,5
2016-07-19T03:47:05.398Z,5
2016-07-19T03:48:05.430Z,5
2016-07-19T03:50:05.470Z,5
2016-07-19T03:51:05.507Z,5
2016-07-19T03:52:06.225Z,5
2016-07-19T03:53:20.486Z,5
2016-07-19T03:54:05.583Z,5
2016-07-19T03:55:05.606Z,10
2016-07-19T03:56:05.638Z,10
2016-07-19T03:57:05.658Z,10
2016-07-19T03:58:05.696Z,10
2016-07-19T03:59:05.718Z,10
2016-07-19T04:00:20.670Z,10
2016-07-19T04:01:05.781Z,10
2016-07-19T04:02:20.717Z,10
2016-07-19T04:03:05.838Z,10
2016-07-19T04:04:05.852Z,10
2016-07-19T04:05:20.809Z,10
2016-07-19T04:06:05.902Z,10
2016-07-19T04:07:05.938Z,10
2016-07-19T04:08:20.870Z,10
2016-07-19T04:09:05.992Z,10
2016-07-19T04:10:06.008Z,10
2016-07-19T04:11:06.028Z,10
2016-07-19T04:12:06.054Z,10
2016-07-19T04:13:06.137Z,10
2016-07-19T04:15:06.137Z,10
2016-07-19T04:16:21.095Z,15
2016-07-19T04:17:21.112Z,15
2016-07-19T04:18:21.143Z,15
2016-07-19T04:19:06.256Z,15
2016-07-19T04:20:21.204Z,15
2016-07-19T04:22:06.333Z,15
2016-07-19T04:23:06.351Z,20
2016-07-19T04:24:06.389Z,20
2016-07-19T04:25:06.408Z,20
2016-07-19T04:26:06.432Z,20
2016-07-19T04:27:06.457Z,20
2016-07-19T04:28:06.496Z,20
2016-07-19T04:29:06.513Z,20
2016-07-19T04:30:06.540Z,20
2016-07-19T04:31:06.563Z,20
2016-07-19T04:32:06.596Z,20
2016-07-19T04:34:06.645Z,25
2016-07-19T04:35:06.670Z,25
2016-07-19T04:36:06.705Z,25
2016-07-19T04:37:06.720Z,25
2016-07-19T04:38:06.755Z,25
2016-07-19T04:39:21.704Z,25
2016-07-19T04:41:06.831Z,25
2016-07-19T04:42:06.866Z,25
2016-07-19T04:43:06.879Z,25
2016-07-19T04:44:06.914Z,25
2016-07-19T04:45:06.928Z,25
2016-07-19T04:46:06.962Z,25
2016-07-19T04:47:06.985Z,25
2016-07-19T04:48:07.014Z,30
2016-07-19T04:49:07.038Z,30
2016-07-19T04:50:07.064Z,30
2016-07-19T04:51:07.097Z,30
2016-07-19T04:52:22.047Z,30
2016-07-19T04:53:07.150Z,30
2016-07-19T04:54:07.183Z,30
2016-07-19T04:56:07.227Z,35
2016-07-19T04:57:07.267Z,35
2016-07-19T04:58:07.273Z,35
2016-07-19T04:59:22.235Z,35
2016-07-19T05:00:07.338Z,40
2016-07-19T05:01:07.355Z,40
2016-07-19T05:02:07.386Z,40
2016-07-19T05:03:07.416Z,45
2016-07-19T05:04:07.444Z,45
2016-07-19T05:05:07.469Z,45
2016-07-19T05:06:22.419Z,50
2016-07-19T05:07:07.521Z,50
2016-07-19T05:08:22.479Z,50
2016-07-19T05:09:07.578Z,50
2016-07-19T05:10:07.602Z,50
2016-07-19T05:11:07.624Z,50
2016-07-19T05:12:07.654Z,50
2016-07-19T05:13:07.687Z,50
2016-07-19T05:14:07.715Z,50
2016-07-19T05:15:22.660Z,50
2016-07-19T05:16:07.761Z,50
2016-07-19T05:17:07.787Z,50
2016-07-19T05:18:22.736Z,50
2016-07-19T05:19:07.853Z,50
2016-07-19T05:20:07.866Z,50
2016-07-19T05:21:22.814Z,50
2016-07-19T05:22:22.845Z,55
2016-07-19T05:23:22.871Z,55
2016-07-19T05:24:23.596Z,55
2016-07-19T05:25:08.006Z,55
2016-07-19T05:26:08.034Z,55
2016-07-19T05:27:08.058Z,50
2016-07-19T05:28:08.079Z,50
2016-07-19T05:29:08.112Z,55
2016-07-19T05:30:08.145Z,55
2016-07-19T05:31:08.165Z,55
2016-07-19T05:32:08.194Z,55
2016-07-19T05:33:08.214Z,55
2016-07-19T05:34:08.239Z,50
2016-07-19T05:35:23.197Z,50
2016-07-19T05:36:08.295Z,50
2016-07-19T05:37:09.017Z,50
2016-07-19T05:39:08.375Z,50
2016-07-19T05:40:23.330Z,50
2016-07-19T05:41:24.228Z,55
2016-07-19T05:42:08.457Z,50
2016-07-19T05:43:08.477Z,50
2016-07-19T05:44:08.526Z,50
2016-07-19T05:45:08.531Z,50
2016-07-19T05:46:08.573Z,50
2016-07-19T05:47:08.597Z,50
2016-07-19T05:48:08.620Z,50
2016-07-19T05:49:08.642Z,50
2016-07-19T05:50:08.664Z,50
2016-07-19T05:51:08.701Z,55
2016-07-19T05:52:23.643Z,55
2016-07-19T05:53:23.681Z,60
2016-07-19T05:54:08.768Z,60
2016-07-19T05:55:23.732Z,60
2016-07-19T05:56:23.748Z,60
2016-07-19T05:57:23.777Z,65
2016-07-19T05:58:08.890Z,65
2016-07-19T05:59:08.906Z,70
2016-07-19T06:00:08.949Z,75
2016-07-19T06:01:08.966Z,80
2016-07-19T06:03:09.018Z,85
2016-07-19T06:04:09.051Z,85
2016-07-19T06:05:09.071Z,90
2016-07-19T06:06:09.099Z,85
2016-07-19T06:07:38.981Z,85
2016-07-19T06:08:24.072Z,85
2016-07-19T06:09:09.184Z,80
2016-07-19T06:10:09.211Z,75
2016-07-19T06:11:09.231Z,70
2016-07-19T06:12:09.292Z,70
2016-07-19T06:13:09.306Z,65
2016-07-19T06:15:09.379Z,60
2016-07-19T06:16:24.315Z,60
2016-07-19T06:17:24.339Z,60
2016-07-19T06:18:09.440Z,55
2016-07-19T06:19:09.466Z,60
2016-07-19T06:20:09.494Z,60
2016-07-19T06:21:24.441Z,70
2016-07-19T06:22:09.544Z,70
2016-07-19T06:24:09.610Z,80
2016-07-19T06:25:09.628Z,80
2016-07-19T06:26:24.574Z,80
2016-07-19T06:27:24.603Z,80
2016-07-19T06:28:09.708Z,80
2016-07-19T06:29:09.736Z,80
2016-07-19T06:31:09.787Z,85
2016-07-19T06:32:10.509Z,80
2016-07-19T06:33:10.542Z,80
2016-07-19T06:34:09.871Z,85
2016-07-19T06:35:09.892Z,85
2016-07-19T06:36:09.915Z,90
2016-07-19T06:37:25.568Z,85
2016-07-19T06:38:24.904Z,90
2016-07-19T06:39:10.001Z,90
2016-07-19T06:40:10.033Z,95
2016-07-19T06:41:24.976Z,95
2016-07-19T06:43:39.946Z,100
2016-07-19T06:44:10.135Z,100
2016-07-19T06:45:10.165Z,100
2016-07-19T06:46:10.187Z,105
2016-07-19T06:47:10.219Z,105
2016-07-19T06:48:10.254Z,105
2016-07-19T06:49:10.270Z,105
2016-07-19T06:50:10.305Z,110
2016-07-19T06:51:10.325Z,110
2016-07-19T06:52:25.276Z,115
2016-07-19T06:53:10.377Z,115
2016-07-19T06:54:10.464Z,115
2016-07-19T06:55:10.443Z,120
2016-07-19T06:57:10.493Z,115
2016-07-19T06:59:40.390Z,120
2016-07-19T07:00:10.575Z,120
2016-07-19T07:01:10.590Z,120
2016-07-19T07:02:10.617Z,120
2016-07-19T07:03:25.579Z,130
2016-07-19T07:04:10.680Z,130
2016-07-19T07:05:10.713Z,135
2016-07-19T07:06:10.736Z,140
2016-07-19T07:07:10.763Z,140
2016-07-19T07:08:10.785Z,145
2016-07-19T07:09:10.817Z,150
2016-07-19T07:11:10.868Z,170
2016-07-19T07:12:25.826Z,180
2016-07-19T07:13:10.929Z,190
2016-07-19T07:14:10.943Z,200
2016-07-19T07:15:25.951Z,205
2016-07-19T07:16:11.000Z,215
2016-07-19T07:17:11.038Z,220
2016-07-19T07:18:11.059Z,225
2016-07-19T07:19:11.086Z,240
2016-07-19T07:20:11.115Z,245
2016-07-19T07:21:26.069Z,235
2016-07-19T07:22:11.169Z,235
2016-07-19T07:23:11.208Z,235
2016-07-19T07:24:11.917Z,235
2016-07-19T07:25:11.240Z,235
2016-07-19T07:26:11.276Z,240
2016-07-19T07:27:11.317Z,255
2016-07-19T07:29:11.361Z,245
2016-07-19T07:30:26.318Z,255
2016-07-19T07:31:11.424Z,270
2016-07-19T07:32:26.374Z,285
2016-07-19T07:33:26.402Z,310
2016-07-19T07:34:11.496Z,325
2016-07-19T07:35:11.536Z,340
2016-07-19T07:36:26.484Z,360
2016-07-19T07:37:11.578Z,350
2016-07-19T07:38:26.539Z,375
2016-07-19T07:39:11.638Z,380
2016-07-19T07:40:11.671Z,435
2016-07-19T07:42:11.745Z,555
2016-07-19T07:43:11.760Z,1245
2016-07-19T07:45:11.821Z,1430
2016-07-19T07:46:11.858Z,595
2016-07-19T07:47:11.876Z,600
2016-07-19T07:48:26.828Z,640
2016-07-19T07:49:11.928Z,850
2016-07-19T07:50:11.961Z,855
2016-07-19T07:51:12.004Z,575
2016-07-19T07:52:12.028Z,885
2016-07-19T07:53:12.058Z,1275
2016-07-19T07:54:27.001Z,1235
2016-07-19T07:55:27.040Z,1075
2016-07-19T07:56:27.074Z,1205
2016-07-19T07:57:12.181Z,1190
2016-07-19T07:58:12.220Z,1145
2016-07-19T07:59:12.244Z,1105
2016-07-19T08:00:12.271Z,685
2016-07-19T08:01:12.293Z,1115
2016-07-19T08:02:27.267Z,910
2016-07-19T08:03:12.365Z,470
2016-07-19T08:04:12.406Z,390
2016-07-19T08:05:12.441Z,470
2016-07-19T08:06:12.472Z,1045
2016-07-19T08:08:12.543Z,345
2016-07-19T08:09:12.572Z,355
2016-07-19T08:10:12.598Z,550
2016-07-19T08:11:27.556Z,965
2016-07-19T08:12:12.664Z,555
2016-07-19T08:13:12.698Z,540
2016-07-19T08:14:12.740Z,445
2016-07-19T08:15:27.736Z,325
2016-07-19T08:16:27.710Z,275
2016-07-19T08:17:12.833Z,265
2016-07-19T08:18:27.785Z,360
2016-07-19T08:19:12.905Z,825
2016-07-19T08:20:12.932Z,845
2016-07-19T08:21:27.873Z,815
2016-07-19T08:22:12.978Z,805
2016-07-19T08:23:13.032Z,780
2016-07-19T08:24:13.056Z,580
2016-07-19T08:25:13.088Z,850
2016-07-19T08:26:13.114Z,345
2016-07-19T08:27:13.146Z,515
2016-07-19T08:29:28.138Z,475
2016-07-19T08:30:13.257Z,445
2016-07-19T08:31:28.204Z,460
2016-07-19T08:32:13.321Z,430
2016-07-19T08:33:13.339Z,500
2016-07-19T08:35:13.420Z,400
2016-07-19T08:36:13.447Z,430
2016-07-19T08:37:13.478Z,400
2016-07-19T08:38:13.505Z,360
2016-07-19T08:39:13.543Z,340
2016-07-19T08:40:13.572Z,335
2016-07-19T08:41:13.608Z,365
2016-07-19T08:42:28.563Z,360
2016-07-19T08:43:13.673Z,370
2016-07-19T08:44:28.624Z,380
2016-07-19T08:45:13.750Z,345
2016-07-19T08:46:28.688Z,315
2016-07-19T08:47:13.811Z,305
2016-07-19T08:48:13.826Z,290
2016-07-19T08:49:28.781Z,265
2016-07-19T08:50:28.810Z,260
2016-07-19T08:51:13.931Z,260
2016-07-19T08:52:13.953Z,250
2016-07-19T08:53:13.996Z,250
2016-07-19T08:54:14.016Z,275
2016-07-19T08:56:14.097Z,255
2016-07-19T08:57:14.116Z,255
2016-07-19T08:58:14.160Z,245
2016-07-19T08:59:14.179Z,240
2016-07-19T09:00:14.212Z,240
2016-07-19T09:01:14.232Z,245
2016-07-19T09:02:14.969Z,290
2016-07-19T09:03:14.296Z,260
2016-07-19T09:04:14.334Z,255
2016-07-19T09:05:29.286Z,260
2016-07-19T09:06:14.393Z,280
2016-07-19T09:07:14.433Z,285
2016-07-19T09:08:14.546Z,250
2016-07-19T09:09:29.411Z,250
2016-07-19T09:10:14.534Z,260
2016-07-19T09:11:29.479Z,250
2016-07-19T09:12:14.580Z,255
2016-07-19T09:13:14.625Z,560
2016-07-19T09:14:14.645Z,265
2016-07-19T09:15:14.681Z,260
2016-07-19T09:16:14.705Z,280
2016-07-19T09:17:14.733Z,330
2016-07-19T09:18:14.771Z,250
2016-07-19T09:19:14.797Z,220
2016-07-19T09:20:14.832Z,225
2016-07-19T09:21:14.871Z,245
2016-07-19T09:22:14.896Z,265
2016-07-19T09:23:14.927Z,285
2016-07-19T09:24:14.962Z,290
2016-07-19T09:25:29.912Z,270
2016-07-19T09:26:15.010Z,285
2016-07-19T09:28:15.090Z,450
2016-07-19T09:29:15.106Z,300
2016-07-19T09:30:15.148Z,285
2016-07-19T09:31:15.176Z,275
2016-07-19T09:32:15.200Z,275
2016-07-19T09:33:15.234Z,280
2016-07-19T09:34:15.272Z,280
2016-07-19T09:35:15.294Z,275
2016-07-19T09:36:15.324Z,270
2016-07-19T09:37:30.275Z,265
2016-07-19T09:38:15.397Z,265
2016-07-19T09:39:30.343Z,265
2016-07-19T09:40:30.382Z,255
2016-07-19T09:41:30.409Z,415
2016-07-19T09:42:15.509Z,275
2016-07-19T09:43:15.557Z,250
2016-07-19T09:44:15.575Z,235
2016-07-19T09:45:30.534Z,225
2016-07-19T09:46:15.642Z,215
2016-07-19T09:47:15.659Z,220
2016-07-19T09:48:15.702Z,235
2016-07-19T09:49:28.480Z,245
2016-07-19T09:50:15.767Z,245
2016-07-19T09:51:15.795Z,235
2016-07-19T09:52:15.838Z,225
2016-07-19T09:53:30.787Z,220
2016-07-19T09:54:15.896Z,215
2016-07-19T09:55:15.902Z,230
2016-07-19T09:56:15.949Z,225
2016-07-19T09:57:30.909Z,225
2016-07-19T09:58:16.011Z,220
2016-07-19T09:59:16.040Z,220
2016-07-19T10:00:30.990Z,220
2016-07-19T10:01:16.107Z,215
2016-07-19T10:02:31.044Z,200
2016-07-19T10:03:16.158Z,210
2016-07-19T10:04:16.188Z,220
2016-07-19T10:05:31.138Z,235
2016-07-19T10:06:16.253Z,245
2016-07-19T10:07:16.289Z,330
2016-07-19T10:08:16.309Z,255
2016-07-19T10:09:31.265Z,240
2016-07-19T10:10:16.392Z,215
2016-07-19T10:11:16.397Z,205
2016-07-19T10:12:16.432Z,200
2016-07-19T10:13:16.469Z,190
2016-07-19T10:14:16.500Z,180
2016-07-19T10:15:16.529Z,175
2016-07-19T10:16:16.560Z,165
2016-07-19T10:17:16.586Z,155
2016-07-19T10:18:16.618Z,150
2016-07-19T10:19:16.645Z,145
2016-07-19T10:20:17.394Z,140
2016-07-19T10:21:31.628Z,135
2016-07-19T10:22:16.749Z,130
2016-07-19T10:23:16.769Z,125
2016-07-19T10:24:16.795Z,130
2016-07-19T10:25:31.762Z,125
2016-07-19T10:26:16.864Z,125
2016-07-19T10:27:16.896Z,125
2016-07-19T10:28:16.931Z,125
2016-07-19T10:29:31.880Z,125
2016-07-19T10:30:16.984Z,120
2016-07-19T10:31:31.936Z,120
2016-07-19T10:32:17.046Z,120
2016-07-19T10:33:17.077Z,125
2016-07-19T10:34:17.101Z,130
2016-07-19T10:35:17.135Z,135
2016-07-19T10:36:17.862Z,140
2016-07-19T10:37:17.196Z,140
2016-07-19T10:38:17.226Z,140
2016-07-19T10:39:32.170Z,135
2016-07-19T10:40:32.205Z,135
2016-07-19T10:41:32.228Z,130
2016-07-19T10:42:17.346Z,130
2016-07-19T10:43:17.365Z,135
2016-07-19T10:44:17.402Z,140
2016-07-19T10:45:17.447Z,135
2016-07-19T10:46:17.460Z,125
2016-07-19T10:47:17.488Z,115
2016-07-19T10:48:32.446Z,110
2016-07-19T10:49:17.554Z,105
2016-07-19T10:50:17.589Z,105
2016-07-19T10:51:17.609Z,105
2016-07-19T10:52:17.638Z,110
2016-07-19T10:53:17.661Z,105
2016-07-19T10:54:17.716Z,105
2016-07-19T10:55:17.730Z,105
2016-07-19T10:56:17.753Z,110
2016-07-19T10:57:17.793Z,115
2016-07-19T10:58:17.821Z,120
2016-07-19T10:59:17.845Z,125
2016-07-19T11:00:32.800Z,125
2016-07-19T11:01:32.821Z,130
2016-07-19T11:02:32.855Z,130
2016-07-19T11:03:32.887Z,130
2016-07-19T11:04:18.008Z,135
2016-07-19T11:05:18.021Z,125
2016-07-19T11:06:18.056Z,120
2016-07-19T11:07:18.083Z,120
2016-07-19T11:08:33.032Z,115
2016-07-19T11:09:18.823Z,115
2016-07-19T11:10:18.165Z,115
2016-07-19T11:11:18.889Z,110
2016-07-19T11:12:33.146Z,105
2016-07-19T11:13:18.260Z,105
2016-07-19T11:14:18.285Z,105
2016-07-19T11:15:18.320Z,100
2016-07-19T11:17:33.296Z,105
2016-07-19T11:18:18.406Z,110
2016-07-19T11:19:19.130Z,120
2016-07-19T11:20:18.463Z,125
2016-07-19T11:22:18.521Z,120
2016-07-19T11:23:18.551Z,120
2016-07-19T11:24:18.579Z,115
2016-07-19T11:25:33.530Z,115
2016-07-19T11:26:18.636Z,115
2016-07-19T11:27:18.671Z,115
2016-07-19T11:28:33.622Z,115
2016-07-19T11:29:18.720Z,120
2016-07-19T11:30:18.758Z,120
2016-07-19T11:33:18.845Z,115
2016-07-19T11:34:18.868Z,115
2016-07-19T11:35:18.911Z,115
2016-07-19T11:36:33.850Z,125
2016-07-19T11:37:18.959Z,130
2016-07-19T11:38:18.996Z,145
2016-07-19T11:39:19.018Z,145
2016-07-19T11:40:19.054Z,155
2016-07-19T11:41:19.079Z,155
2016-07-19T11:42:34.018Z,150
2016-07-19T11:43:19.132Z,150
2016-07-19T11:44:34.092Z,145
2016-07-19T11:45:19.196Z,140
2016-07-19T11:46:19.223Z,135
2016-07-19T11:47:19.253Z,135
2016-07-19T11:48:34.208Z,145
2016-07-19T11:49:19.324Z,150
2016-07-19T11:50:19.338Z,155
2016-07-19T11:51:34.291Z,160
2016-07-19T11:52:34.319Z,165
2016-07-19T11:54:19.453Z,165
2016-07-19T11:55:19.483Z,165
2016-07-19T11:56:34.434Z,155
2016-07-19T11:57:19.548Z,145
2016-07-19T11:58:19.568Z,145
2016-07-19T11:59:19.591Z,150
2016-07-19T12:00:34.555Z,155
2016-07-19T12:01:19.655Z,165
2016-07-19T12:02:19.707Z,180
2016-07-19T12:03:19.718Z,195
2016-07-19T12:04:19.736Z,205
2016-07-19T12:05:19.773Z,215
2016-07-19T12:06:19.810Z,225
2016-07-19T12:07:19.833Z,230
2016-07-19T12:08:19.860Z,235
2016-07-19T12:09:19.899Z,235
2016-07-19T12:10:34.846Z,235
2016-07-19T12:11:34.869Z,235
2016-07-19T12:12:34.901Z,230
2016-07-19T12:13:20.023Z,230
2016-07-19T12:14:20.035Z,220
2016-07-19T12:16:35.028Z,210
2016-07-19T12:17:20.129Z,235
2016-07-19T12:18:20.166Z,285
2016-07-19T12:19:20.196Z,280
2016-07-19T12:20:20.271Z,215
2016-07-19T12:21:20.243Z,205
2016-07-19T12:22:20.278Z,205
2016-07-19T12:23:20.315Z,175
2016-07-19T12:24:20.336Z,220
2016-07-19T12:25:20.371Z,215
2016-07-19T12:26:20.398Z,205
2016-07-19T12:27:20.429Z,200
2016-07-19T12:28:20.454Z,200
2016-07-19T12:29:20.496Z,200
2016-07-19T12:30:20.517Z,205
2016-07-19T12:31:20.550Z,200
2016-07-19T12:32:20.599Z,200
2016-07-19T12:34:21.339Z,200
2016-07-19T12:35:20.693Z,210
2016-07-19T12:36:20.707Z,200
2016-07-19T12:37:20.734Z,230
2016-07-19T12:38:20.773Z,235
2016-07-19T12:39:20.796Z,235
2016-07-19T12:40:20.826Z,235
2016-07-19T12:41:20.861Z,235
2016-07-19T12:42:20.889Z,235
2016-07-19T12:43:20.917Z,245
2016-07-19T12:44:22.344Z,190
2016-07-19T12:45:20.986Z,260
2016-07-19T12:46:21.712Z,260
2016-07-19T12:47:35.954Z,265
2016-07-19T12:48:36.679Z,270
2016-07-19T12:49:21.114Z,275
2016-07-19T12:50:21.141Z,275
2016-07-19T12:51:21.163Z,280
2016-07-19T12:52:36.114Z,280
2016-07-19T12:53:21.205Z,250
2016-07-19T12:54:21.235Z,250
2016-07-19T12:55:21.278Z,195
2016-07-19T12:56:21.302Z,190
2016-07-19T12:57:21.333Z,190
2016-07-19T12:58:21.355Z,195
2016-07-19T12:59:21.391Z,240
2016-07-19T13:00:21.424Z,220
2016-07-19T13:01:21.448Z,305
2016-07-19T13:02:21.489Z,235
2016-07-19T13:03:36.426Z,215
2016-07-19T13:04:21.553Z,215
2016-07-19T13:05:21.569Z,205
2016-07-19T13:06:21.597Z,200
2016-07-19T13:07:21.633Z,195
2016-07-19T13:08:36.583Z,185
2016-07-19T13:09:22.400Z,185
2016-07-19T13:10:21.724Z,185
2016-07-19T13:11:36.678Z,190
2016-07-19T13:12:21.784Z,185
2016-07-19T13:13:36.728Z,190
2016-07-19T13:14:21.845Z,195
2016-07-19T13:15:21.876Z,200
2016-07-19T13:16:21.897Z,285
2016-07-19T13:17:21.939Z,270
2016-07-19T13:18:21.963Z,230
2016-07-19T13:19:51.844Z,275
2016-07-19T13:20:22.024Z,205
2016-07-19T13:21:22.058Z,215
2016-07-19T13:22:22.778Z,260
2016-07-19T13:23:22.123Z,225
2016-07-19T13:24:37.765Z,200
2016-07-19T13:25:22.185Z,250
2016-07-19T13:26:22.207Z,175
2016-07-19T13:27:22.238Z,245
2016-07-19T13:28:22.263Z,245
2016-07-19T13:29:37.219Z,215
2016-07-19T13:30:22.326Z,250
2016-07-19T13:31:22.371Z,260
2016-07-19T13:32:37.308Z,175
2016-07-19T13:33:22.421Z,175
2016-07-19T13:34:22.457Z,180
2016-07-19T13:36:22.510Z,175
2016-07-19T13:38:22.574Z,190
2016-07-19T13:39:22.616Z,190
2016-07-19T13:40:22.635Z,215
2016-07-19T13:41:22.664Z,195
2016-07-19T13:43:22.721Z,190
2016-07-19T13:44:22.757Z,185
2016-07-19T13:45:37.701Z,180
2016-07-19T13:46:22.822Z,180
2016-07-19T13:47:22.855Z,190
2016-07-19T13:48:22.878Z,190
2016-07-19T13:49:22.919Z,260
2016-07-19T13:50:37.862Z,195
2016-07-19T13:51:22.967Z,185
2016-07-19T13:52:22.997Z,185
2016-07-19T13:54:23.061Z,180
2016-07-19T13:55:23.093Z,180
2016-07-19T13:56:23.131Z,215
2016-07-19T13:57:23.151Z,195
2016-07-19T13:58:23.187Z,225
2016-07-19T13:59:23.211Z,230
2016-07-19T14:00:23.246Z,245
2016-07-19T14:01:23.276Z,205
2016-07-19T14:02:23.306Z,160
2016-07-19T14:04:23.371Z,165
2016-07-19T14:05:23.399Z,160
2016-07-19T14:06:23.420Z,160
2016-07-19T14:07:23.462Z,190
2016-07-19T14:08:23.491Z,175
2016-07-19T14:09:23.525Z,185
2016-07-19T14:10:23.542Z,250
2016-07-19T14:11:23.573Z,250
2016-07-19T14:12:23.618Z,250
2016-07-19T14:13:23.647Z,175
2016-07-19T14:14:23.675Z,245
2016-07-19T14:15:24.400Z,175
2016-07-19T14:16:23.739Z,205
2016-07-19T14:17:23.768Z,245
2016-07-19T14:18:23.795Z,220
2016-07-19T14:19:23.824Z,265
2016-07-19T14:20:23.859Z,270
2016-07-19T14:21:24.582Z,265
2016-07-19T14:22:38.852Z,180
2016-07-19T14:24:38.895Z,265
2016-07-19T14:26:24.040Z,270
2016-07-19T14:27:24.062Z,265
2016-07-19T14:28:39.225Z,180
2016-07-19T14:29:24.118Z,265
2016-07-19T14:30:24.151Z,210
2016-07-19T14:31:39.103Z,265
2016-07-19T14:32:54.059Z,260
2016-07-19T14:33:24.249Z,260
2016-07-19T14:34:24.283Z,170
2016-07-19T14:35:24.355Z,170
2016-07-19T14:36:24.336Z,170
2016-07-19T14:37:24.375Z,250
2016-07-19T14:38:39.331Z,170
2016-07-19T14:39:24.421Z,160
2016-07-19T14:40:24.466Z,210
2016-07-19T14:41:24.491Z,155
2016-07-19T14:42:24.534Z,145
2016-07-19T14:43:24.548Z,150
2016-07-19T14:44:39.505Z,150
2016-07-19T14:45:24.617Z,150
2016-07-19T14:46:24.647Z,150
2016-07-19T14:47:39.593Z,180
2016-07-19T14:48:24.709Z,200
2016-07-19T14:49:39.659Z,140
2016-07-19T14:50:24.764Z,140
2016-07-19T14:51:24.807Z,145